sensor_id;sensor_type;location;lat;lon;timestamp;P1;durP1;ratioP1;P2;durP2;ratioP2
80778;SDS011;70170;47.856;10.956;2023-08-06T00:02:15;3.38;;;3.03;;
80778;SDS011;70170;47.856;10.956;2023-08-06T00:04:41;10.02;;;3.30;;
80778;SDS011;70170;47.856;10.956;2023-08-06T00:07:06;5.03;;;2.70;;
80778;SDS011;70170;47.856;10.956;2023-08-06T00:09:31;4.75;;;3.00;;
80778;SDS011;70170;47.856;10.956;2023-08-06T00:11:56;3.63;;;3.13;;
80778;SDS011;70170;47.856;10.956;2023-08-06T00:14:22;4.20;;;3.17;;
80778;SDS011;70170;47.856;10.956;2023-08-06T00:16:47;3.97;;;2.92;;
80778;SDS011;70170;47.856;10.956;2023-08-06T00:19:13;4.95;;;3.25;;
80778;SDS011;70170;47.856;10.956;2023-08-06T00:21:50;4.60;;;3.33;;
80778;SDS011;70170;47.856;10.956;2023-08-06T00:24:15;3.17;;;2.72;;
80778;SDS011;70170;47.856;10.956;2023-08-06T00:26:40;5.07;;;3.53;;
80778;SDS011;70170;47.856;10.956;2023-08-06T00:29:05;4.53;;;3.28;;
80778;SDS011;70170;47.856;10.956;2023-08-06T00:31:31;5.43;;;3.78;;
80778;SDS011;70170;47.856;10.956;2023-08-06T00:33:56;3.50;;;3.20;;
80778;SDS011;70170;47.856;10.956;2023-08-06T00:36:21;4.78;;;3.53;;
80778;SDS011;70170;47.856;10.956;2023-08-06T00:38:46;5.50;;;3.78;;
80778;SDS011;70170;47.856;10.956;2023-08-06T00:41:12;3.88;;;3.33;;
80778;SDS011;70170;47.856;10.956;2023-08-06T00:43:37;3.80;;;3.47;;
80778;SDS011;70170;47.856;10.956;2023-08-06T00:46:02;4.55;;;3.53;;
80778;SDS011;70170;47.856;10.956;2023-08-06T00:48:28;4.85;;;3.35;;
80778;SDS011;70170;47.856;10.956;2023-08-06T00:50:53;3.72;;;3.28;;
80778;SDS011;70170;47.856;10.956;2023-08-06T00:53:19;3.67;;;3.03;;
80778;SDS011;70170;47.856;10.956;2023-08-06T00:55:44;3.25;;;2.95;;
80778;SDS011;70170;47.856;10.956;2023-08-06T00:58:10;3.30;;;3.00;;
80778;SDS011;70170;47.856;10.956;2023-08-06T01:00:35;3.08;;;2.75;;
80778;SDS011;70170;47.856;10.956;2023-08-06T01:03:01;3.08;;;2.80;;
80778;SDS011;70170;47.856;10.956;2023-08-06T01:05:26;2.67;;;2.45;;
80778;SDS011;70170;47.856;10.956;2023-08-06T01:08:03;4.95;;;2.60;;
80778;SDS011;70170;47.856;10.956;2023-08-06T01:11:25;4.55;;;3.22;;
80778;SDS011;70170;47.856;10.956;2023-08-06T01:14:02;2.72;;;2.50;;
80778;SDS011;70170;47.856;10.956;2023-08-06T01:16:35;3.33;;;2.42;;
80778;SDS011;70170;47.856;10.956;2023-08-06T01:19:01;3.30;;;2.85;;
80778;SDS011;70170;47.856;10.956;2023-08-06T01:21:27;2.90;;;2.65;;
80778;SDS011;70170;47.856;10.956;2023-08-06T01:23:52;2.60;;;2.40;;
80778;SDS011;70170;47.856;10.956;2023-08-06T01:26:23;2.50;;;2.30;;
80778;SDS011;70170;47.856;10.956;2023-08-06T01:29:06;2.83;;;2.55;;
80778;SDS011;70170;47.856;10.956;2023-08-06T01:31:37;6.65;;;3.00;;
80778;SDS011;70170;47.856;10.956;2023-08-06T01:34:07;3.92;;;2.70;;
80778;SDS011;70170;47.856;10.956;2023-08-06T01:36:41;3.42;;;2.97;;
80778;SDS011;70170;47.856;10.956;2023-08-06T01:39:07;3.22;;;2.80;;
80778;SDS011;70170;47.856;10.956;2023-08-06T01:41:32;3.63;;;2.60;;
80778;SDS011;70170;47.856;10.956;2023-08-06T01:43:58;3.42;;;2.97;;
80778;SDS011;70170;47.856;10.956;2023-08-06T01:46:23;3.10;;;2.90;;
80778;SDS011;70170;47.856;10.956;2023-08-06T01:48:48;3.10;;;2.90;;
80778;SDS011;70170;47.856;10.956;2023-08-06T01:51:13;4.45;;;2.80;;
80778;SDS011;70170;47.856;10.956;2023-08-06T01:53:39;3.80;;;2.88;;
80778;SDS011;70170;47.856;10.956;2023-08-06T01:56:04;3.33;;;2.90;;
80778;SDS011;70170;47.856;10.956;2023-08-06T01:58:29;4.05;;;2.97;;
80778;SDS011;70170;47.856;10.956;2023-08-06T02:00:55;3.08;;;2.70;;
80778;SDS011;70170;47.856;10.956;2023-08-06T02:03:20;3.10;;;2.80;;
80778;SDS011;70170;47.856;10.956;2023-08-06T02:05:45;3.17;;;2.60;;
80778;SDS011;70170;47.856;10.956;2023-08-06T02:08:11;5.63;;;2.90;;
80778;SDS011;70170;47.856;10.956;2023-08-06T02:10:36;3.60;;;2.83;;
80778;SDS011;70170;47.856;10.956;2023-08-06T02:13:01;3.58;;;2.70;;
80778;SDS011;70170;47.856;10.956;2023-08-06T02:15:27;2.85;;;2.60;;
80778;SDS011;70170;47.856;10.956;2023-08-06T02:17:52;4.70;;;2.83;;
80778;SDS011;70170;47.856;10.956;2023-08-06T02:20:17;2.80;;;2.60;;
80778;SDS011;70170;47.856;10.956;2023-08-06T02:22:42;2.70;;;2.47;;
80778;SDS011;70170;47.856;10.956;2023-08-06T02:25:08;3.75;;;2.58;;
80778;SDS011;70170;47.856;10.956;2023-08-06T02:27:33;3.38;;;2.40;;
80778;SDS011;70170;47.856;10.956;2023-08-06T02:29:59;4.03;;;2.65;;
80778;SDS011;70170;47.856;10.956;2023-08-06T02:32:24;6.07;;;2.72;;
80778;SDS011;70170;47.856;10.956;2023-08-06T02:34:49;2.83;;;2.22;;
80778;SDS011;70170;47.856;10.956;2023-08-06T02:37:15;6.82;;;2.60;;
80778;SDS011;70170;47.856;10.956;2023-08-06T02:39:40;2.53;;;2.10;;
80778;SDS011;70170;47.856;10.956;2023-08-06T02:42:06;2.65;;;2.45;;
80778;SDS011;70170;47.856;10.956;2023-08-06T02:44:32;2.50;;;2.30;;
80778;SDS011;70170;47.856;10.956;2023-08-06T02:46:58;2.65;;;2.45;;
80778;SDS011;70170;47.856;10.956;2023-08-06T02:49:24;2.60;;;2.40;;
80778;SDS011;70170;47.856;10.956;2023-08-06T02:51:49;5.18;;;2.28;;
80778;SDS011;70170;47.856;10.956;2023-08-06T02:54:14;7.22;;;3.30;;
80778;SDS011;70170;47.856;10.956;2023-08-06T02:56:42;2.38;;;2.17;;
80778;SDS011;70170;47.856;10.956;2023-08-06T02:59:09;3.90;;;2.50;;
80778;SDS011;70170;47.856;10.956;2023-08-06T03:01:34;2.80;;;2.60;;
80778;SDS011;70170;47.856;10.956;2023-08-06T03:04:01;2.75;;;2.55;;
80778;SDS011;70170;47.856;10.956;2023-08-06T03:06:26;6.25;;;2.83;;
80778;SDS011;70170;47.856;10.956;2023-08-06T03:08:51;2.78;;;2.47;;
80778;SDS011;70170;47.856;10.956;2023-08-06T03:11:17;2.92;;;2.42;;
80778;SDS011;70170;47.856;10.956;2023-08-06T03:13:42;2.60;;;2.40;;
80778;SDS011;70170;47.856;10.956;2023-08-06T03:16:07;3.45;;;2.78;;
80778;SDS011;70170;47.856;10.956;2023-08-06T03:18:32;3.65;;;2.40;;
80778;SDS011;70170;47.856;10.956;2023-08-06T03:20:58;8.68;;;3.17;;
80778;SDS011;70170;47.856;10.956;2023-08-06T03:23:25;3.13;;;2.72;;
80778;SDS011;70170;47.856;10.956;2023-08-06T03:25:51;3.15;;;2.85;;
80778;SDS011;70170;47.856;10.956;2023-08-06T03:28:16;5.45;;;2.90;;
80778;SDS011;70170;47.856;10.956;2023-08-06T03:30:41;2.70;;;2.50;;
80778;SDS011;70170;47.856;10.956;2023-08-06T03:33:07;3.45;;;2.55;;
80778;SDS011;70170;47.856;10.956;2023-08-06T03:35:32;2.75;;;2.55;;
80778;SDS011;70170;47.856;10.956;2023-08-06T03:37:57;4.80;;;3.00;;
80778;SDS011;70170;47.856;10.956;2023-08-06T03:40:22;2.97;;;2.70;;
80778;SDS011;70170;47.856;10.956;2023-08-06T03:42:48;3.78;;;2.78;;
80778;SDS011;70170;47.856;10.956;2023-08-06T03:45:13;3.35;;;2.85;;
80778;SDS011;70170;47.856;10.956;2023-08-06T03:47:38;4.72;;;2.60;;
80778;SDS011;70170;47.856;10.956;2023-08-06T03:50:04;2.67;;;2.47;;
80778;SDS011;70170;47.856;10.956;2023-08-06T03:52:29;6.65;;;2.72;;
80778;SDS011;70170;47.856;10.956;2023-08-06T03:54:55;3.63;;;2.17;;
80778;SDS011;70170;47.856;10.956;2023-08-06T03:57:20;2.53;;;2.15;;
80778;SDS011;70170;47.856;10.956;2023-08-06T03:59:45;2.83;;;2.33;;
80778;SDS011;70170;47.856;10.956;2023-08-06T04:02:10;2.60;;;2.15;;
80778;SDS011;70170;47.856;10.956;2023-08-06T04:04:36;2.80;;;2.40;;
80778;SDS011;70170;47.856;10.956;2023-08-06T04:07:01;3.55;;;2.30;;
80778;SDS011;70170;47.856;10.956;2023-08-06T04:09:28;2.10;;;1.95;;
80778;SDS011;70170;47.856;10.956;2023-08-06T04:11:53;2.63;;;2.03;;
80778;SDS011;70170;47.856;10.956;2023-08-06T04:14:19;2.95;;;2.25;;
80778;SDS011;70170;47.856;10.956;2023-08-06T04:16:44;2.75;;;2.00;;
80778;SDS011;70170;47.856;10.956;2023-08-06T04:19:09;2.72;;;2.13;;
80778;SDS011;70170;47.856;10.956;2023-08-06T04:21:35;2.33;;;2.13;;
80778;SDS011;70170;47.856;10.956;2023-08-06T04:24:00;2.83;;;1.73;;
80778;SDS011;70170;47.856;10.956;2023-08-06T04:26:25;2.17;;;2.08;;
80778;SDS011;70170;47.856;10.956;2023-08-06T04:28:51;2.45;;;2.10;;
80778;SDS011;70170;47.856;10.956;2023-08-06T04:31:16;2.25;;;2.05;;
80778;SDS011;70170;47.856;10.956;2023-08-06T04:33:41;2.10;;;1.90;;
80778;SDS011;70170;47.856;10.956;2023-08-06T04:36:07;1.88;;;1.77;;
80778;SDS011;70170;47.856;10.956;2023-08-06T04:38:32;2.30;;;2.05;;
80778;SDS011;70170;47.856;10.956;2023-08-06T04:40:57;2.60;;;1.83;;
80778;SDS011;70170;47.856;10.956;2023-08-06T04:43:23;2.15;;;1.95;;
80778;SDS011;70170;47.856;10.956;2023-08-06T04:45:49;1.80;;;1.48;;
80778;SDS011;70170;47.856;10.956;2023-08-06T04:48:16;3.22;;;1.80;;
80778;SDS011;70170;47.856;10.956;2023-08-06T04:50:45;2.00;;;1.77;;
80778;SDS011;70170;47.856;10.956;2023-08-06T04:53:11;1.88;;;1.77;;
80778;SDS011;70170;47.856;10.956;2023-08-06T04:55:36;3.00;;;2.22;;
80778;SDS011;70170;47.856;10.956;2023-08-06T04:58:02;2.13;;;1.92;;
80778;SDS011;70170;47.856;10.956;2023-08-06T05:00:27;4.60;;;2.05;;
80778;SDS011;70170;47.856;10.956;2023-08-06T05:02:52;3.08;;;1.67;;
80778;SDS011;70170;47.856;10.956;2023-08-06T05:05:18;3.33;;;1.60;;
80778;SDS011;70170;47.856;10.956;2023-08-06T05:07:45;1.83;;;1.73;;
80778;SDS011;70170;47.856;10.956;2023-08-06T05:10:13;2.22;;;1.60;;
80778;SDS011;70170;47.856;10.956;2023-08-06T05:12:38;2.38;;;1.40;;
80778;SDS011;70170;47.856;10.956;2023-08-06T05:15:03;2.38;;;1.67;;
80778;SDS011;70170;47.856;10.956;2023-08-06T05:17:29;1.58;;;1.48;;
80778;SDS011;70170;47.856;10.956;2023-08-06T05:19:54;2.17;;;1.55;;
80778;SDS011;70170;47.856;10.956;2023-08-06T05:22:20;4.63;;;1.73;;
80778;SDS011;70170;47.856;10.956;2023-08-06T05:24:45;1.88;;;1.35;;
80778;SDS011;70170;47.856;10.956;2023-08-06T05:27:10;1.20;;;1.20;;
80778;SDS011;70170;47.856;10.956;2023-08-06T05:29:35;1.30;;;1.25;;
80778;SDS011;70170;47.856;10.956;2023-08-06T05:32:01;1.98;;;1.50;;
80778;SDS011;70170;47.856;10.956;2023-08-06T05:34:26;2.72;;;1.50;;
80778;SDS011;70170;47.856;10.956;2023-08-06T05:36:51;2.45;;;1.38;;
80778;SDS011;70170;47.856;10.956;2023-08-06T05:39:17;1.52;;;1.30;;
80778;SDS011;70170;47.856;10.956;2023-08-06T05:41:43;1.77;;;1.33;;
80778;SDS011;70170;47.856;10.956;2023-08-06T05:44:08;6.47;;;1.70;;
80778;SDS011;70170;47.856;10.956;2023-08-06T05:46:33;3.60;;;1.50;;
80778;SDS011;70170;47.856;10.956;2023-08-06T05:48:58;1.20;;;1.10;;
80778;SDS011;70170;47.856;10.956;2023-08-06T05:51:25;1.30;;;1.20;;
80778;SDS011;70170;47.856;10.956;2023-08-06T05:53:51;6.03;;;1.30;;
80778;SDS011;70170;47.856;10.956;2023-08-06T05:56:16;1.23;;;1.13;;
80778;SDS011;70170;47.856;10.956;2023-08-06T05:58:42;1.50;;;1.40;;
80778;SDS011;70170;47.856;10.956;2023-08-06T06:01:07;2.65;;;1.30;;
80778;SDS011;70170;47.856;10.956;2023-08-06T06:03:32;1.80;;;1.48;;
80778;SDS011;70170;47.856;10.956;2023-08-06T06:05:58;1.20;;;1.10;;
80778;SDS011;70170;47.856;10.956;2023-08-06T06:08:25;1.85;;;1.27;;
80778;SDS011;70170;47.856;10.956;2023-08-06T06:10:51;1.27;;;1.17;;
80778;SDS011;70170;47.856;10.956;2023-08-06T06:13:16;2.10;;;1.55;;
80778;SDS011;70170;47.856;10.956;2023-08-06T06:15:41;1.20;;;1.10;;
80778;SDS011;70170;47.856;10.956;2023-08-06T06:18:06;4.03;;;1.15;;
80778;SDS011;70170;47.856;10.956;2023-08-06T06:20:32;1.52;;;1.00;;
80778;SDS011;70170;47.856;10.956;2023-08-06T06:22:58;1.25;;;1.08;;
80778;SDS011;70170;47.856;10.956;2023-08-06T06:25:23;1.60;;;1.17;;
80778;SDS011;70170;47.856;10.956;2023-08-06T06:27:48;1.40;;;1.30;;
80778;SDS011;70170;47.856;10.956;2023-08-06T06:30:14;1.40;;;1.30;;
80778;SDS011;70170;47.856;10.956;2023-08-06T06:32:48;2.45;;;1.30;;
80778;SDS011;70170;47.856;10.956;2023-08-06T06:35:14;1.10;;;1.10;;
80778;SDS011;70170;47.856;10.956;2023-08-06T06:37:39;6.25;;;1.40;;
80778;SDS011;70170;47.856;10.956;2023-08-06T06:40:04;1.48;;;1.30;;
80778;SDS011;70170;47.856;10.956;2023-08-06T06:42:30;1.10;;;1.10;;
80778;SDS011;70170;47.856;10.956;2023-08-06T06:44:55;4.00;;;1.08;;
80778;SDS011;70170;47.856;10.956;2023-08-06T06:47:21;1.73;;;1.45;;
80778;SDS011;70170;47.856;10.956;2023-08-06T06:49:46;1.60;;;1.50;;
80778;SDS011;70170;47.856;10.956;2023-08-06T06:52:11;2.67;;;1.60;;
80778;SDS011;70170;47.856;10.956;2023-08-06T06:54:37;1.48;;;1.35;;
80778;SDS011;70170;47.856;10.956;2023-08-06T06:57:02;1.40;;;1.30;;
80778;SDS011;70170;47.856;10.956;2023-08-06T06:59:28;1.30;;;1.20;;
80778;SDS011;70170;47.856;10.956;2023-08-06T07:01:53;1.70;;;1.60;;
80778;SDS011;70170;47.856;10.956;2023-08-06T07:04:18;1.13;;;1.05;;
80778;SDS011;70170;47.856;10.956;2023-08-06T07:06:44;1.30;;;1.20;;
80778;SDS011;70170;47.856;10.956;2023-08-06T07:09:09;2.35;;;1.00;;
80778;SDS011;70170;47.856;10.956;2023-08-06T07:11:34;2.45;;;1.10;;
80778;SDS011;70170;47.856;10.956;2023-08-06T07:13:59;1.38;;;1.17;;
80778;SDS011;70170;47.856;10.956;2023-08-06T07:16:25;1.92;;;0.95;;
80778;SDS011;70170;47.856;10.956;2023-08-06T07:18:51;1.25;;;0.75;;
80778;SDS011;70170;47.856;10.956;2023-08-06T07:21:17;2.75;;;1.10;;
80778;SDS011;70170;47.856;10.956;2023-08-06T07:23:43;1.33;;;0.80;;
80778;SDS011;70170;47.856;10.956;2023-08-06T07:26:08;1.05;;;0.98;;
80778;SDS011;70170;47.856;10.956;2023-08-06T07:28:34;0.90;;;0.90;;
80778;SDS011;70170;47.856;10.956;2023-08-06T07:30:59;0.88;;;0.88;;
80778;SDS011;70170;47.856;10.956;2023-08-06T07:33:25;0.82;;;0.82;;
80778;SDS011;70170;47.856;10.956;2023-08-06T07:35:50;1.70;;;0.85;;
80778;SDS011;70170;47.856;10.956;2023-08-06T07:38:15;2.35;;;0.80;;
80778;SDS011;70170;47.856;10.956;2023-08-06T07:40:42;1.77;;;0.90;;
80778;SDS011;70170;47.856;10.956;2023-08-06T07:43:07;1.23;;;1.13;;
80778;SDS011;70170;47.856;10.956;2023-08-06T07:45:35;1.40;;;0.80;;
80778;SDS011;70170;47.856;10.956;2023-08-06T07:48:01;1.10;;;0.75;;
80778;SDS011;70170;47.856;10.956;2023-08-06T07:50:27;0.55;;;0.55;;
80778;SDS011;70170;47.856;10.956;2023-08-06T07:52:52;0.88;;;0.52;;
80778;SDS011;70170;47.856;10.956;2023-08-06T07:55:17;0.60;;;0.60;;
80778;SDS011;70170;47.856;10.956;2023-08-06T07:57:43;1.15;;;0.52;;
80778;SDS011;70170;47.856;10.956;2023-08-06T08:00:08;1.30;;;0.70;;
80778;SDS011;70170;47.856;10.956;2023-08-06T08:02:34;2.08;;;0.80;;
80778;SDS011;70170;47.856;10.956;2023-08-06T08:04:59;2.42;;;0.63;;
80778;SDS011;70170;47.856;10.956;2023-08-06T08:07:25;1.13;;;0.70;;
80778;SDS011;70170;47.856;10.956;2023-08-06T08:09:53;0.80;;;0.60;;
80778;SDS011;70170;47.856;10.956;2023-08-06T08:12:18;0.65;;;0.40;;
80778;SDS011;70170;47.856;10.956;2023-08-06T08:14:43;0.57;;;0.50;;
80778;SDS011;70170;47.856;10.956;2023-08-06T08:17:10;0.40;;;0.40;;
80778;SDS011;70170;47.856;10.956;2023-08-06T08:19:36;0.40;;;0.40;;
80778;SDS011;70170;47.856;10.956;2023-08-06T08:22:01;0.40;;;0.40;;
80778;SDS011;70170;47.856;10.956;2023-08-06T08:24:28;2.58;;;0.55;;
80778;SDS011;70170;47.856;10.956;2023-08-06T08:26:55;2.95;;;0.60;;
80778;SDS011;70170;47.856;10.956;2023-08-06T08:29:20;1.38;;;0.60;;
80778;SDS011;70170;47.856;10.956;2023-08-06T08:31:46;1.88;;;0.73;;
80778;SDS011;70170;47.856;10.956;2023-08-06T08:34:14;1.23;;;0.57;;
80778;SDS011;70170;47.856;10.956;2023-08-06T08:36:39;0.38;;;0.38;;
80778;SDS011;70170;47.856;10.956;2023-08-06T08:39:05;0.50;;;0.50;;
80778;SDS011;70170;47.856;10.956;2023-08-06T08:41:30;0.63;;;0.43;;
80778;SDS011;70170;47.856;10.956;2023-08-06T08:43:57;0.40;;;0.40;;
80778;SDS011;70170;47.856;10.956;2023-08-06T08:46:24;0.43;;;0.30;;
80778;SDS011;70170;47.856;10.956;2023-08-06T08:48:50;0.40;;;0.35;;
80778;SDS011;70170;47.856;10.956;2023-08-06T08:51:16;3.03;;;0.32;;
80778;SDS011;70170;47.856;10.956;2023-08-06T08:53:42;0.55;;;0.50;;
80778;SDS011;70170;47.856;10.956;2023-08-06T08:56:09;0.85;;;0.50;;
80778;SDS011;70170;47.856;10.956;2023-08-06T08:58:37;0.40;;;0.40;;
80778;SDS011;70170;47.856;10.956;2023-08-06T09:01:03;1.63;;;0.45;;
80778;SDS011;70170;47.856;10.956;2023-08-06T09:03:29;0.40;;;0.40;;
80778;SDS011;70170;47.856;10.956;2023-08-06T09:05:55;0.40;;;0.40;;
80778;SDS011;70170;47.856;10.956;2023-08-06T09:08:24;0.75;;;0.60;;
80778;SDS011;70170;47.856;10.956;2023-08-06T09:10:54;0.43;;;0.43;;
80778;SDS011;70170;47.856;10.956;2023-08-06T09:13:21;2.03;;;1.02;;
80778;SDS011;70170;47.856;10.956;2023-08-06T09:15:48;0.40;;;0.40;;
80778;SDS011;70170;47.856;10.956;2023-08-06T09:18:15;0.68;;;0.47;;
80778;SDS011;70170;47.856;10.956;2023-08-06T09:20:49;1.10;;;0.50;;
80778;SDS011;70170;47.856;10.956;2023-08-06T09:23:15;0.90;;;0.40;;
80778;SDS011;70170;47.856;10.956;2023-08-06T09:25:40;2.72;;;0.82;;
80778;SDS011;70170;47.856;10.956;2023-08-06T09:28:06;0.50;;;0.50;;
80778;SDS011;70170;47.856;10.956;2023-08-06T09:30:32;1.25;;;1.15;;
80778;SDS011;70170;47.856;10.956;2023-08-06T09:32:59;9.32;;;4.90;;
80778;SDS011;70170;47.856;10.956;2023-08-06T09:35:27;1.45;;;0.47;;
80778;SDS011;70170;47.856;10.956;2023-08-06T09:37:54;0.88;;;0.50;;
80778;SDS011;70170;47.856;10.956;2023-08-06T09:40:29;0.60;;;0.40;;
80778;SDS011;70170;47.856;10.956;2023-08-06T09:42:55;1.88;;;0.40;;
80778;SDS011;70170;47.856;10.956;2023-08-06T09:45:21;0.73;;;0.60;;
80778;SDS011;70170;47.856;10.956;2023-08-06T09:47:47;0.77;;;0.70;;
80778;SDS011;70170;47.856;10.956;2023-08-06T09:50:20;0.98;;;0.70;;
80778;SDS011;70170;47.856;10.956;2023-08-06T09:52:48;1.40;;;0.60;;
80778;SDS011;70170;47.856;10.956;2023-08-06T09:55:15;0.30;;;0.30;;
80778;SDS011;70170;47.856;10.956;2023-08-06T09:57:42;0.50;;;0.50;;
80778;SDS011;70170;47.856;10.956;2023-08-06T10:00:11;0.40;;;0.40;;
80778;SDS011;70170;47.856;10.956;2023-08-06T10:02:37;0.40;;;0.40;;
80778;SDS011;70170;47.856;10.956;2023-08-06T10:05:04;0.50;;;0.50;;
80778;SDS011;70170;47.856;10.956;2023-08-06T10:07:30;0.50;;;0.50;;
80778;SDS011;70170;47.856;10.956;2023-08-06T10:09:55;2.20;;;0.60;;
80778;SDS011;70170;47.856;10.956;2023-08-06T10:12:21;0.45;;;0.40;;
80778;SDS011;70170;47.856;10.956;2023-08-06T10:14:49;0.73;;;0.38;;
80778;SDS011;70170;47.856;10.956;2023-08-06T10:17:18;0.40;;;0.40;;
80778;SDS011;70170;47.856;10.956;2023-08-06T10:19:44;0.40;;;0.40;;
80778;SDS011;70170;47.856;10.956;2023-08-06T10:24:54;0.40;;;0.40;;
80778;SDS011;70170;47.856;10.956;2023-08-06T10:27:28;0.30;;;0.30;;
80778;SDS011;70170;47.856;10.956;2023-08-06T10:32:47;0.25;;;0.25;;
80778;SDS011;70170;47.856;10.956;2023-08-06T10:38:07;1.13;;;0.45;;
80778;SDS011;70170;47.856;10.956;2023-08-06T10:40:35;0.28;;;0.28;;
80778;SDS011;70170;47.856;10.956;2023-08-06T10:43:02;2.10;;;0.60;;
80778;SDS011;70170;47.856;10.956;2023-08-06T10:45:28;0.30;;;0.25;;
80778;SDS011;70170;47.856;10.956;2023-08-06T10:47:55;0.50;;;0.50;;
80778;SDS011;70170;47.856;10.956;2023-08-06T10:50:22;2.05;;;0.50;;
80778;SDS011;70170;47.856;10.956;2023-08-06T10:52:48;3.45;;;0.50;;
80778;SDS011;70170;47.856;10.956;2023-08-06T10:55:14;0.55;;;0.30;;
80778;SDS011;70170;47.856;10.956;2023-08-06T10:57:49;0.32;;;0.32;;
80778;SDS011;70170;47.856;10.956;2023-08-06T11:00:14;4.20;;;0.65;;
80778;SDS011;70170;47.856;10.956;2023-08-06T11:02:39;0.30;;;0.30;;
80778;SDS011;70170;47.856;10.956;2023-08-06T11:05:08;0.43;;;0.43;;
80778;SDS011;70170;47.856;10.956;2023-08-06T11:07:37;4.15;;;0.65;;
80778;SDS011;70170;47.856;10.956;2023-08-06T11:10:06;0.45;;;0.43;;
80778;SDS011;70170;47.856;10.956;2023-08-06T11:12:33;0.30;;;0.30;;
80778;SDS011;70170;47.856;10.956;2023-08-06T11:14:59;0.30;;;0.30;;
80778;SDS011;70170;47.856;10.956;2023-08-06T11:17:27;0.65;;;0.38;;
80778;SDS011;70170;47.856;10.956;2023-08-06T11:19:53;1.08;;;0.40;;
80778;SDS011;70170;47.856;10.956;2023-08-06T11:22:19;2.08;;;0.43;;
80778;SDS011;70170;47.856;10.956;2023-08-06T11:24:48;0.30;;;0.30;;
80778;SDS011;70170;47.856;10.956;2023-08-06T11:27:14;0.55;;;0.55;;
80778;SDS011;70170;47.856;10.956;2023-08-06T11:29:43;0.57;;;0.40;;
80778;SDS011;70170;47.856;10.956;2023-08-06T11:32:09;0.43;;;0.35;;
80778;SDS011;70170;47.856;10.956;2023-08-06T11:34:35;0.30;;;0.30;;
80778;SDS011;70170;47.856;10.956;2023-08-06T11:37:04;0.40;;;0.40;;
80778;SDS011;70170;47.856;10.956;2023-08-06T11:39:37;0.35;;;0.35;;
80778;SDS011;70170;47.856;10.956;2023-08-06T11:42:04;0.40;;;0.40;;
80778;SDS011;70170;47.856;10.956;2023-08-06T11:44:31;0.30;;;0.30;;
80778;SDS011;70170;47.856;10.956;2023-08-06T11:47:01;1.02;;;0.65;;
80778;SDS011;70170;47.856;10.956;2023-08-06T11:49:40;0.35;;;0.35;;
80778;SDS011;70170;47.856;10.956;2023-08-06T11:52:13;0.30;;;0.30;;
80778;SDS011;70170;47.856;10.956;2023-08-06T11:57:35;0.30;;;0.30;;
80778;SDS011;70170;47.856;10.956;2023-08-06T12:00:05;0.30;;;0.30;;
80778;SDS011;70170;47.856;10.956;2023-08-06T12:02:33;0.40;;;0.40;;
80778;SDS011;70170;47.856;10.956;2023-08-06T12:05:10;0.20;;;0.20;;
80778;SDS011;70170;47.856;10.956;2023-08-06T12:07:37;0.30;;;0.30;;
80778;SDS011;70170;47.856;10.956;2023-08-06T12:10:04;0.32;;;0.30;;
80778;SDS011;70170;47.856;10.956;2023-08-06T12:12:30;0.40;;;0.40;;
80778;SDS011;70170;47.856;10.956;2023-08-06T12:14:55;0.30;;;0.30;;
80778;SDS011;70170;47.856;10.956;2023-08-06T12:17:21;0.30;;;0.30;;
80778;SDS011;70170;47.856;10.956;2023-08-06T12:19:47;0.40;;;0.40;;
80778;SDS011;70170;47.856;10.956;2023-08-06T12:22:13;0.63;;;0.60;;
80778;SDS011;70170;47.856;10.956;2023-08-06T12:24:39;0.40;;;0.40;;
80778;SDS011;70170;47.856;10.956;2023-08-06T12:27:05;0.35;;;0.35;;
80778;SDS011;70170;47.856;10.956;2023-08-06T12:29:31;0.30;;;0.30;;
80778;SDS011;70170;47.856;10.956;2023-08-06T12:31:56;1.00;;;0.40;;
80778;SDS011;70170;47.856;10.956;2023-08-06T12:34:21;0.30;;;0.30;;
80778;SDS011;70170;47.856;10.956;2023-08-06T12:36:47;0.22;;;0.22;;
80778;SDS011;70170;47.856;10.956;2023-08-06T12:39:12;0.30;;;0.30;;
80778;SDS011;70170;47.856;10.956;2023-08-06T12:41:38;0.50;;;0.50;;
80778;SDS011;70170;47.856;10.956;2023-08-06T12:44:03;0.20;;;0.20;;
80778;SDS011;70170;47.856;10.956;2023-08-06T12:46:28;0.30;;;0.30;;
80778;SDS011;70170;47.856;10.956;2023-08-06T12:48:54;0.98;;;0.50;;
80778;SDS011;70170;47.856;10.956;2023-08-06T12:51:19;0.63;;;0.47;;
80778;SDS011;70170;47.856;10.956;2023-08-06T12:53:44;0.50;;;0.50;;
80778;SDS011;70170;47.856;10.956;2023-08-06T12:56:10;0.45;;;0.30;;
80778;SDS011;70170;47.856;10.956;2023-08-06T12:58:35;0.20;;;0.20;;
80778;SDS011;70170;47.856;10.956;2023-08-06T13:01:00;0.25;;;0.25;;
80778;SDS011;70170;47.856;10.956;2023-08-06T13:03:26;2.38;;;0.30;;
80778;SDS011;70170;47.856;10.956;2023-08-06T13:05:51;2.55;;;0.52;;
80778;SDS011;70170;47.856;10.956;2023-08-06T13:08:17;1.40;;;0.55;;
80778;SDS011;70170;47.856;10.956;2023-08-06T13:10:42;0.52;;;0.40;;
80778;SDS011;70170;47.856;10.956;2023-08-06T13:13:07;0.68;;;0.40;;
80778;SDS011;70170;47.856;10.956;2023-08-06T13:15:35;0.40;;;0.40;;
80778;SDS011;70170;47.856;10.956;2023-08-06T13:18:00;0.30;;;0.30;;
80778;SDS011;70170;47.856;10.956;2023-08-06T13:20:25;0.50;;;0.50;;
80778;SDS011;70170;47.856;10.956;2023-08-06T13:22:52;0.40;;;0.40;;
80778;SDS011;70170;47.856;10.956;2023-08-06T13:25:18;1.00;;;0.30;;
80778;SDS011;70170;47.856;10.956;2023-08-06T13:27:44;0.47;;;0.47;;
80778;SDS011;70170;47.856;10.956;2023-08-06T13:30:10;0.63;;;0.60;;
80778;SDS011;70170;47.856;10.956;2023-08-06T13:32:36;0.63;;;0.55;;
80778;SDS011;70170;47.856;10.956;2023-08-06T13:35:02;0.80;;;0.40;;
80778;SDS011;70170;47.856;10.956;2023-08-06T13:37:29;0.30;;;0.30;;
80778;SDS011;70170;47.856;10.956;2023-08-06T13:39:54;0.40;;;0.40;;
80778;SDS011;70170;47.856;10.956;2023-08-06T13:42:19;1.23;;;0.40;;
80778;SDS011;70170;47.856;10.956;2023-08-06T13:44:45;0.30;;;0.30;;
80778;SDS011;70170;47.856;10.956;2023-08-06T13:47:10;0.40;;;0.40;;
80778;SDS011;70170;47.856;10.956;2023-08-06T13:49:35;0.50;;;0.50;;
80778;SDS011;70170;47.856;10.956;2023-08-06T13:52:01;2.30;;;0.60;;
80778;SDS011;70170;47.856;10.956;2023-08-06T13:54:26;0.30;;;0.30;;
80778;SDS011;70170;47.856;10.956;2023-08-06T13:56:51;0.30;;;0.30;;
80778;SDS011;70170;47.856;10.956;2023-08-06T13:59:18;0.40;;;0.40;;
80778;SDS011;70170;47.856;10.956;2023-08-06T14:01:44;0.43;;;0.43;;
80778;SDS011;70170;47.856;10.956;2023-08-06T14:04:10;0.40;;;0.40;;
80778;SDS011;70170;47.856;10.956;2023-08-06T14:06:35;0.52;;;0.40;;
80778;SDS011;70170;47.856;10.956;2023-08-06T14:09:01;2.45;;;0.40;;
80778;SDS011;70170;47.856;10.956;2023-08-06T14:11:26;0.45;;;0.40;;
80778;SDS011;70170;47.856;10.956;2023-08-06T14:13:52;0.93;;;0.80;;
80778;SDS011;70170;47.856;10.956;2023-08-06T14:16:17;0.40;;;0.40;;
80778;SDS011;70170;47.856;10.956;2023-08-06T14:18:43;0.40;;;0.40;;
80778;SDS011;70170;47.856;10.956;2023-08-06T14:21:08;0.40;;;0.40;;
80778;SDS011;70170;47.856;10.956;2023-08-06T14:23:33;0.32;;;0.32;;
80778;SDS011;70170;47.856;10.956;2023-08-06T14:25:59;0.40;;;0.40;;
80778;SDS011;70170;47.856;10.956;2023-08-06T14:28:24;0.47;;;0.47;;
80778;SDS011;70170;47.856;10.956;2023-08-06T14:30:49;0.25;;;0.25;;
80778;SDS011;70170;47.856;10.956;2023-08-06T14:33:15;0.40;;;0.40;;
80778;SDS011;70170;47.856;10.956;2023-08-06T14:35:40;0.35;;;0.35;;
80778;SDS011;70170;47.856;10.956;2023-08-06T14:38:05;0.50;;;0.50;;
80778;SDS011;70170;47.856;10.956;2023-08-06T14:40:31;0.82;;;0.50;;